Time;durP1;ratioP1;P1;durP2;ratioP2;P2;SDS_P1;SDS_P2;PMS_P1;PMS_P2;Temp;Humidity;BMP_temperature;BMP_pressure;BME280_temperature;BME280_humidity;BME280_pressure;Samples;Min_cycle;Max_cycle;Signal;HPM_P1;HPM_P2
2022/07/15 00:00:27;;;;;;;6.28;3.92;;;21.50;89.80;;;;;;5126827;27;20043;-76
2022/07/15 00:02:52;;;;;;;6.57;2.30;;;21.30;90.00;;;;;;5126442;27;20153;-75
2022/07/15 00:05:18;;;;;;;3.88;2.10;;;21.40;90.00;;;;;;5124850;27;20646;-76
2022/07/15 00:07:44;;;;;;;3.88;2.15;;;21.30;90.10;;;;;;5124944;27;20108;-76
2022/07/15 00:10:18;;;;;;;5.75;2.70;;;21.20;90.10;;;;;;5124090;27;20536;-76
2022/07/15 00:12:47;;;;;;;6.15;3.67;;;21.10;90.20;;;;;;5123709;27;20031;-76
2022/07/15 00:15:13;;;;;;;5.97;2.60;;;21.10;90.30;;;;;;5123804;27;20036;-76
2022/07/15 00:17:43;;;;;;;6.68;2.50;;;21.20;90.40;;;;;;5127249;27;20098;-75
2022/07/15 00:20:10;;;;;;;5.95;2.15;;;21.10;90.40;;;;;;5107516;27;20126;-76
2022/07/15 00:22:36;;;;;;;4.60;2.95;;;21.00;90.50;;;;;;5124328;27;20560;-76
2022/07/15 00:25:03;;;;;;;6.57;2.67;;;21.00;90.50;;;;;;5124244;27;20152;-76
2022/07/15 00:27:29;;;;;;;5.70;3.63;;;21.00;90.50;;;;;;5121624;27;20051;-76
2022/07/15 00:29:54;;;;;;;4.75;2.63;;;21.00;90.60;;;;;;5124120;27;20509;-76
2022/07/15 00:32:20;;;;;;;5.28;3.45;;;21.00;90.60;;;;;;5126614;27;20059;-76
2022/07/15 00:34:46;;;;;;;5.97;2.65;;;21.00;90.60;;;;;;5125855;27;20103;-76
2022/07/15 00:37:12;;;;;;;4.90;3.03;;;20.90;90.60;;;;;;5122826;27;20098;-76
2022/07/15 00:39:38;;;;;;;6.25;2.95;;;20.90;90.60;;;;;;5122499;27;20406;-76
2022/07/15 00:42:04;;;;;;;7.15;2.78;;;20.80;90.70;;;;;;5124045;27;20158;-76
2022/07/15 00:44:30;;;;;;;4.45;2.97;;;20.80;90.70;;;;;;5126540;27;20075;-76
2022/07/15 00:47:00;;;;;;;5.70;2.78;;;20.80;90.80;;;;;;5123169;27;20044;-76
2022/07/15 00:49:26;;;;;;;4.05;2.42;;;20.80;90.90;;;;;;5123849;27;20442;-76
2022/07/15 00:51:54;;;;;;;6.50;2.95;;;20.70;90.90;;;;;;5124055;27;20046;-76
2022/07/15 00:54:27;;;;;;;5.07;2.55;;;20.70;90.90;;;;;;5122630;27;20043;-76
2022/07/15 00:56:57;;;;;;;11.18;3.38;;;20.70;91.00;;;;;;5122842;27;20061;-76
2022/07/15 00:59:28;;;;;;;6.35;2.95;;;20.70;91.00;;;;;;5122875;27;20092;-76
2022/07/15 01:01:56;;;;;;;8.35;3.42;;;20.70;91.00;;;;;;5125847;27;20046;-76
2022/07/15 01:04:23;;;;;;;5.22;3.85;;;20.70;91.00;;;;;;5124380;27;20051;-76
2022/07/15 01:06:50;;;;;;;4.28;2.22;;;20.70;91.00;;;;;;5121814;27;20047;-76
2022/07/15 01:09:18;;;;;;;6.38;2.60;;;20.70;91.00;;;;;;5124367;27;20545;-77
2022/07/15 01:11:44;;;;;;;6.63;2.90;;;20.70;91.00;;;;;;5125274;27;20167;-76
2022/07/15 01:14:10;;;;;;;6.28;3.40;;;20.70;91.10;;;;;;5122389;27;20573;-76
2022/07/15 01:16:36;;;;;;;3.97;2.42;;;20.70;91.10;;;;;;5126520;27;20043;-76
2022/07/15 01:19:01;;;;;;;5.85;2.50;;;20.50;91.10;;;;;;5124588;27;20592;-76
2022/07/15 01:21:27;;;;;;;5.53;2.53;;;20.50;91.20;;;;;;5122704;27;20659;-76
2022/07/15 01:23:53;;;;;;;4.25;2.22;;;20.50;91.30;;;;;;5123739;27;20077;-76
2022/07/15 01:26:19;;;;;;;4.68;2.30;;;20.50;91.30;;;;;;5122432;27;20108;-76
2022/07/15 01:28:45;;;;;;;3.85;2.35;;;20.50;91.30;;;;;;5122119;27;20044;-76
2022/07/15 01:31:11;;;;;;;7.63;2.88;;;20.40;91.30;;;;;;5119020;27;20513;-76
2022/07/15 01:33:38;;;;;;;5.35;3.08;;;20.40;91.30;;;;;;5123250;27;20054;-75
2022/07/15 01:36:05;;;;;;;5.53;3.08;;;20.30;91.40;;;;;;5124942;27;20042;-76
2022/07/15 01:38:31;;;;;;;6.65;3.35;;;20.40;91.40;;;;;;5126839;27;22056;-76
2022/07/15 01:40:57;;;;;;;7.32;3.65;;;20.30;91.40;;;;;;5129424;27;20034;-76
2022/07/15 01:43:23;;;;;;;5.50;3.38;;;20.30;91.50;;;;;;5126991;27;20529;-76
2022/07/15 01:45:49;;;;;;;5.28;2.92;;;20.20;91.50;;;;;;5127405;27;21274;-76
2022/07/15 01:51:01;;;;;;;3.88;2.47;;;20.20;91.50;;;;;;5128149;27;20498;-76
2022/07/15 01:53:28;;;;;;;4.15;2.95;;;20.20;91.50;;;;;;5126854;27;20620;-76
2022/07/15 01:55:54;;;;;;;4.15;2.60;;;20.10;91.60;;;;;;5128540;27;20079;-76
2022/07/15 01:58:21;;;;;;;6.32;2.30;;;20.10;91.60;;;;;;5128791;27;20050;-76
2022/07/15 02:00:49;;;;;;;6.60;2.50;;;20.10;91.60;;;;;;5127277;27;20138;-76
2022/07/15 02:03:15;;;;;;;6.22;2.70;;;20.10;91.70;;;;;;5124068;27;20489;-76
2022/07/15 02:05:41;;;;;;;5.03;2.60;;;20.00;91.80;;;;;;5124092;27;20578;-76
2022/07/15 02:08:07;;;;;;;9.70;3.22;;;20.00;91.80;;;;;;5127146;27;20040;-76
2022/07/15 02:10:41;;;;;;;5.90;3.85;;;20.00;91.80;;;;;;5127929;27;20039;-76
2022/07/15 02:13:08;;;;;;;5.57;2.70;;;19.90;91.90;;;;;;5128408;27;20043;-76
2022/07/15 02:15:34;;;;;;;5.57;2.95;;;20.00;91.90;;;;;;5126863;27;20419;-76
2022/07/15 02:18:02;;;;;;;6.03;3.17;;;19.90;91.90;;;;;;5126250;27;20124;-76
2022/07/15 02:20:28;;;;;;;11.38;3.95;;;19.90;91.90;;;;;;5127715;27;20081;-76
2022/07/15 02:22:57;;;;;;;5.72;2.63;;;19.80;91.90;;;;;;5128294;27;20039;-76
2022/07/15 02:25:31;;;;;;;3.95;2.53;;;19.80;92.00;;;;;;5128845;27;20471;-76
2022/07/15 02:27:59;;;;;;;5.45;2.92;;;19.80;92.00;;;;;;5125978;27;20043;-75
2022/07/15 02:30:34;;;;;;;3.72;2.38;;;19.70;92.00;;;;;;5126367;27;20039;-76
2022/07/15 02:33:00;;;;;;;4.80;2.22;;;19.70;92.00;;;;;;5125482;27;20126;-76
2022/07/15 02:35:26;;;;;;;4.20;2.42;;;19.70;92.10;;;;;;5126620;27;20047;-76
2022/07/15 02:37:52;;;;;;;8.25;2.63;;;19.70;92.10;;;;;;5126171;27;20341;-76
2022/07/15 02:40:18;;;;;;;5.55;3.17;;;19.70;92.00;;;;;;5126577;27;20068;-76
2022/07/15 02:42:52;;;;;;;7.32;2.45;;;19.60;92.10;;;;;;5128143;27;20050;-76
2022/07/15 02:45:19;;;;;;;5.38;2.75;;;19.60;92.10;;;;;;5125950;27;20065;-76
2022/07/15 02:47:45;;;;;;;4.63;2.45;;;19.60;92.10;;;;;;5124365;27;20042;-76
2022/07/15 02:50:11;;;;;;;6.57;3.35;;;19.60;92.10;;;;;;5126852;27;20043;-76
2022/07/15 02:52:37;;;;;;;5.57;3.17;;;19.60;92.10;;;;;;5125572;27;20593;-76
2022/07/15 02:55:04;;;;;;;4.35;2.33;;;19.50;92.10;;;;;;5107369;27;20111;-75
2022/07/15 02:57:30;;;;;;;3.20;2.40;;;19.40;92.10;;;;;;5125273;27;20036;-76
2022/07/15 02:59:56;;;;;;;6.43;2.63;;;19.40;92.10;;;;;;5126262;27;20511;-76
2022/07/15 03:02:21;;;;;;;5.18;2.75;;;19.30;92.10;;;;;;5125582;27;20411;-76
2022/07/15 03:04:47;;;;;;;7.47;2.45;;;19.30;92.20;;;;;;5126772;27;20130;-76
2022/07/15 03:07:13;;;;;;;7.68;2.42;;;19.30;92.30;;;;;;5124992;27;20493;-75
2022/07/15 03:09:39;;;;;;;7.70;2.40;;;19.30;92.50;;;;;;5124399;27;20625;-76
2022/07/15 03:12:05;;;;;;;3.30;2.35;;;19.30;92.30;;;;;;5126413;27;20686;-76
2022/07/15 03:14:31;;;;;;;7.00;2.22;;;19.20;92.20;;;;;;5107423;27;20418;-76
2022/07/15 03:16:57;;;;;;;3.85;2.20;;;19.20;92.20;;;;;;5127078;27;20036;-76
2022/07/15 03:19:22;;;;;;;3.00;1.70;;;19.20;92.20;;;;;;5125080;27;20043;-77
2022/07/15 03:21:49;;;;;;;5.45;1.98;;;19.10;92.10;;;;;;5125392;27;20050;-75
2022/07/15 03:24:15;;;;;;;7.40;2.38;;;19.10;92.20;;;;;;5125995;27;20039;-76
2022/07/15 03:26:41;;;;;;;3.63;2.10;;;19.10;92.20;;;;;;5124750;27;20560;-76
2022/07/15 03:29:07;;;;;;;4.30;2.03;;;19.00;92.20;;;;;;5123193;27;20553;-76
2022/07/15 03:31:33;;;;;;;5.15;2.45;;;19.00;92.20;;;;;;5125125;27;20044;-76
2022/07/15 03:33:58;;;;;;;4.25;2.30;;;19.00;92.20;;;;;;5125171;27;20044;-76
2022/07/15 03:36:24;;;;;;;7.07;2.67;;;19.00;92.20;;;;;;5124992;27;20082;-76
2022/07/15 03:38:51;;;;;;;3.95;2.28;;;19.00;92.20;;;;;;5126025;27;20071;-76
2022/07/15 03:41:21;;;;;;;4.57;2.25;;;19.00;92.20;;;;;;5125407;27;20410;-76
2022/07/15 03:43:47;;;;;;;3.58;2.60;;;19.00;92.10;;;;;;5124210;27;20043;-76
2022/07/15 03:46:16;;;;;;;3.95;2.00;;;18.90;92.10;;;;;;5124898;27;20488;-76
2022/07/15 03:48:42;;;;;;;3.60;2.08;;;18.90;92.20;;;;;;5125490;27;20044;-76
2022/07/15 03:51:08;;;;;;;7.53;2.55;;;18.90;92.20;;;;;;5127458;27;20587;-76
2022/07/15 03:53:34;;;;;;;6.57;2.67;;;18.90;92.20;;;;;;5121844;27;20101;-76
2022/07/15 03:55:59;;;;;;;3.60;2.08;;;18.90;92.20;;;;;;5126263;27;20046;-76
2022/07/15 03:58:25;;;;;;;5.47;3.17;;;18.90;92.20;;;;;;5125579;27;20096;-76
2022/07/15 04:00:51;;;;;;;6.93;3.13;;;18.90;92.20;;;;;;5123389;27;20531;-76
2022/07/15 04:03:17;;;;;;;6.65;2.33;;;18.90;92.10;;;;;;5125501;27;20036;-76
2022/07/15 04:05:43;;;;;;;4.95;2.30;;;19.00;92.10;;;;;;5125016;27;20044;-76
2022/07/15 04:08:09;;;;;;;3.88;2.55;;;19.00;92.10;;;;;;5108637;27;20078;-76
2022/07/15 04:10:35;;;;;;;4.18;2.08;;;19.00;92.10;;;;;;5122985;27;20035;-76
2022/07/15 04:13:02;;;;;;;3.85;2.30;;;19.00;92.00;;;;;;5127199;27;20822;-76
2022/07/15 04:15:28;;;;;;;2.63;1.67;;;18.90;91.90;;;;;;5124505;27;20507;-76
2022/07/15 04:17:54;;;;;;;3.83;2.03;;;18.80;92.00;;;;;;5123845;27;20040;-76
2022/07/15 04:20:20;;;;;;;5.88;1.90;;;18.80;92.00;;;;;;5125609;27;20116;-76
2022/07/15 04:22:47;;;;;;;4.55;2.78;;;18.80;92.00;;;;;;5124869;27;20400;-76
2022/07/15 04:25:16;;;;;;;4.35;2.53;;;18.70;92.00;;;;;;5125976;27;20536;-76
2022/07/15 04:27:42;;;;;;;4.03;1.80;;;18.70;92.10;;;;;;5124802;27;20612;-76
2022/07/15 04:30:08;;;;;;;2.70;2.00;;;18.70;92.10;;;;;;5123601;27;20050;-76
2022/07/15 04:32:34;;;;;;;3.60;1.98;;;18.60;92.10;;;;;;5140517;27;20050;-76
2022/07/15 04:35:01;;;;;;;7.28;2.35;;;18.50;92.10;;;;;;5124797;27;20027;-76
2022/07/15 04:37:27;;;;;;;7.57;1.90;;;18.50;92.10;;;;;;5125191;27;20039;-76
2022/07/15 04:39:54;;;;;;;2.65;1.63;;;18.40;92.10;;;;;;5124002;27;20039;-76
2022/07/15 04:42:21;;;;;;;4.45;2.50;;;18.40;92.20;;;;;;5121289;27;20586;-75
2022/07/15 04:44:47;;;;;;;2.35;1.45;;;18.30;92.20;;;;;;5124019;27;20048;-76
2022/07/15 04:47:13;;;;;;;5.32;2.25;;;18.30;92.20;;;;;;5122700;27;20039;-76
2022/07/15 04:52:24;;;;;;;3.05;1.85;;;18.40;92.20;;;;;;5126163;27;20051;-76
2022/07/15 04:54:50;;;;;;;5.38;1.90;;;18.30;92.20;;;;;;5123722;27;20047;-76
2022/07/15 04:57:16;;;;;;;5.13;1.67;;;18.40;92.20;;;;;;5124330;27;20043;-76
2022/07/15 04:59:42;;;;;;;3.58;2.05;;;18.40;92.20;;;;;;5124224;27;20828;-76
2022/07/15 05:02:08;;;;;;;6.82;1.95;;;18.30;92.20;;;;;;5122706;27;20047;-76
2022/07/15 05:04:34;;;;;;;3.45;2.05;;;18.40;92.20;;;;;;5107082;27;20118;-76
2022/07/15 05:06:59;;;;;;;2.92;1.88;;;18.40;92.20;;;;;;5123344;27;20526;-76
2022/07/15 05:09:25;;;;;;;2.50;1.98;;;18.40;92.20;;;;;;5123316;27;20047;-76
2022/07/15 05:11:51;;;;;;;4.95;2.28;;;18.30;92.20;;;;;;5124295;27;20050;-76
2022/07/15 05:14:17;;;;;;;3.75;2.25;;;18.30;92.20;;;;;;5122843;27;20434;-76
2022/07/15 05:16:42;;;;;;;2.45;1.55;;;18.30;92.20;;;;;;5120717;27;20039;-76
2022/07/15 05:19:08;;;;;;;3.03;1.95;;;18.20;92.20;;;;;;5122068;27;20134;-76
2022/07/15 05:21:34;;;;;;;3.10;1.90;;;18.30;92.30;;;;;;5123184;27;20205;-76
2022/07/15 05:24:00;;;;;;;4.15;2.05;;;18.30;92.30;;;;;;5123876;27;20051;-76
2022/07/15 05:26:26;;;;;;;2.38;1.50;;;18.20;92.20;;;;;;5121224;27;20040;-76
2022/07/15 05:28:51;;;;;;;4.28;2.38;;;18.20;92.30;;;;;;5122420;27;20043;-76
2022/07/15 05:31:17;;;;;;;2.28;1.52;;;18.20;92.30;;;;;;5107360;27;20117;-76
2022/07/15 05:33:43;;;;;;;2.92;1.95;;;18.20;92.30;;;;;;5108071;27;20043;-76
2022/07/15 05:36:13;;;;;;;3.22;1.65;;;18.30;92.30;;;;;;5126625;27;20040;-76
2022/07/15 05:38:39;;;;;;;4.63;2.03;;;18.20;92.30;;;;;;5127055;27;20058;-76
2022/07/15 05:41:05;;;;;;;5.43;2.50;;;18.30;92.30;;;;;;5125284;27;20472;-76
2022/07/15 05:43:31;;;;;;;4.68;2.03;;;18.20;92.30;;;;;;5124015;27;20039;-76
2022/07/15 05:45:57;;;;;;;6.90;2.42;;;18.20;92.30;;;;;;5124823;27;20563;-76
2022/07/15 05:48:23;;;;;;;4.55;1.88;;;18.20;92.30;;;;;;5124264;27;20590;-76
2022/07/15 05:50:49;;;;;;;4.45;1.95;;;18.20;92.40;;;;;;5139965;27;20043;-76
2022/07/15 05:53:15;;;;;;;3.20;1.80;;;18.30;92.30;;;;;;5123533;27;20035;-76
2022/07/15 05:55:41;;;;;;;4.28;1.83;;;18.30;92.30;;;;;;5124841;27;20050;-76
2022/07/15 05:58:08;;;;;;;4.95;2.30;;;18.30;92.30;;;;;;5121526;27;20560;-75
2022/07/15 06:00:34;;;;;;;4.53;2.38;;;18.30;92.30;;;;;;5122356;27;20044;-75
2022/07/15 06:03:01;;;;;;;5.15;2.28;;;18.30;92.60;;;;;;5123881;27;20121;-76
2022/07/15 06:05:28;;;;;;;3.55;2.03;;;18.40;92.30;;;;;;5119247;27;20507;-76
2022/07/15 06:07:54;;;;;;;4.43;2.00;;;18.40;92.30;;;;;;5121787;27;20549;-76
2022/07/15 06:10:19;;;;;;;5.32;1.80;;;18.40;92.50;;;;;;5123470;27;20048;-75
2022/07/15 06:12:45;;;;;;;3.88;1.45;;;18.40;92.20;;;;;;5124684;27;20566;-76
2022/07/15 06:15:11;;;;;;;5.13;1.80;;;18.40;92.20;;;;;;5124630;27;20032;-76
2022/07/15 06:17:38;;;;;;;4.07;2.20;;;18.50;92.20;;;;;;5122476;27;20515;-76
2022/07/15 06:20:05;;;;;;;5.40;3.75;;;18.50;92.20;;;;;;5121976;27;20035;-76
2022/07/15 06:22:31;;;;;;;9.30;2.00;;;18.60;92.20;;;;;;5139038;27;20088;-76
2022/07/15 06:24:57;;;;;;;3.75;1.85;;;18.60;92.10;;;;;;5124926;27;20050;-76
2022/07/15 06:27:22;;;;;;;2.55;1.77;;;18.50;92.10;;;;;;5125852;27;20047;-76
2022/07/15 06:29:52;;;;;;;4.68;1.80;;;18.70;92.10;;;;;;5124032;27;20043;-76
2022/07/15 06:32:18;;;;;;;4.07;2.03;;;18.70;92.00;;;;;;5128220;27;20039;-76
2022/07/15 06:34:44;;;;;;;5.13;1.75;;;18.80;92.00;;;;;;5127061;27;20083;-76
2022/07/15 06:37:10;;;;;;;6.20;2.30;;;18.70;91.80;;;;;;5127211;27;20036;-76
2022/07/15 06:39:36;;;;;;;7.53;2.67;;;18.80;91.80;;;;;;5128187;27;20043;-76
2022/07/15 06:42:02;;;;;;;3.45;1.90;;;18.80;91.60;;;;;;5122777;27;20273;-77
2022/07/15 06:44:28;;;;;;;2.42;1.48;;;18.80;91.70;;;;;;5126699;27;20036;-77
2022/07/15 06:46:55;;;;;;;6.22;1.60;;;18.80;91.60;;;;;;5126962;27;20043;-77
2022/07/15 06:49:22;;;;;;;5.75;2.67;;;18.80;91.50;;;;;;5125483;27;20093;-77
2022/07/15 06:51:48;;;;;;;8.07;1.88;;;18.90;91.50;;;;;;5123651;27;20050;-78
2022/07/15 06:54:14;;;;;;;4.90;1.60;;;18.90;91.40;;;;;;5126717;27;20031;-77
2022/07/15 06:56:40;;;;;;;4.78;1.88;;;19.00;91.30;;;;;;5124563;27;20046;-76
2022/07/15 06:59:06;;;;;;;3.90;1.90;;;19.00;91.30;;;;;;5122436;27;20046;-76
2022/07/15 07:01:32;;;;;;;4.40;1.92;;;19.00;91.30;;;;;;5123207;27;20051;-77
2022/07/15 07:03:58;;;;;;;4.05;1.75;;;19.00;91.10;;;;;;5125707;27;20043;-76
2022/07/15 07:06:26;;;;;;;2.85;1.80;;;19.00;91.00;;;;;;5126152;27;20560;-76
2022/07/15 07:08:52;;;;;;;2.72;1.55;;;19.10;91.00;;;;;;5124443;27;20118;-77
2022/07/15 07:11:18;;;;;;;3.92;1.70;;;19.10;90.90;;;;;;5124021;27;20035;-77
2022/07/15 07:13:44;;;;;;;3.97;1.90;;;19.10;90.70;;;;;;5144025;27;20533;-77
2022/07/15 07:16:10;;;;;;;10.38;1.90;;;19.20;90.80;;;;;;5129152;27;20114;-77
2022/07/15 07:18:36;;;;;;;4.70;2.67;;;19.20;90.70;;;;;;5125502;27;20048;-77
2022/07/15 07:21:01;;;;;;;2.75;1.58;;;19.30;90.60;;;;;;5126257;27;20036;-77
2022/07/15 07:23:27;;;;;;;3.60;2.05;;;19.30;90.50;;;;;;5128201;27;20056;-76
2022/07/15 07:25:54;;;;;;;3.13;1.58;;;19.30;90.40;;;;;;5110580;27;20536;-77
2022/07/15 07:28:20;;;;;;;3.30;1.63;;;19.40;90.30;;;;;;5125937;27;20043;-76
2022/07/15 07:30:46;;;;;;;2.50;1.50;;;19.40;90.20;;;;;;5126798;27;20043;-77
2022/07/15 07:33:13;;;;;;;2.95;1.33;;;19.40;90.20;;;;;;5127311;27;20114;-77
2022/07/15 07:35:39;;;;;;;5.15;1.73;;;19.50;90.20;;;;;;5127216;27;20039;-77
2022/07/15 07:38:05;;;;;;;5.22;1.98;;;19.50;90.10;;;;;;5109249;27;20060;-77
2022/07/15 07:40:30;;;;;;;3.13;1.65;;;19.50;90.10;;;;;;5120478;27;21226;-77
2022/07/15 07:42:56;;;;;;;3.25;1.75;;;19.60;89.90;;;;;;5123771;27;20069;-77
2022/07/15 07:45:23;;;;;;;3.42;1.58;;;19.60;89.80;;;;;;5122503;27;20043;-76
2022/07/15 07:47:49;;;;;;;3.63;1.75;;;19.60;89.50;;;;;;5126954;27;20142;-77
2022/07/15 07:52:40;;;;;;;6.90;1.38;;;19.70;88.90;;;;;;5124920;27;40969;-79
2022/07/15 07:55:07;;;;;;;5.63;1.77;;;19.70;88.70;;;;;;5126809;27;20486;-77
2022/07/15 07:57:33;;;;;;;4.20;2.08;;;19.70;88.70;;;;;;5126249;27;20039;-77
2022/07/15 08:03:21;;;;;;;4.65;1.85;;;19.80;88.50;;;;;;5126810;27;20044;-77
2022/07/15 08:05:47;;;;;;;13.63;2.10;;;19.80;88.50;;;;;;5128410;27;20032;-77
2022/07/15 08:08:14;;;;;;;4.15;1.50;;;19.80;88.50;;;;;;5128316;27;20433;-77
2022/07/15 08:10:42;;;;;;;2.15;1.65;;;19.80;88.20;;;;;;5110176;27;20035;-77
2022/07/15 08:13:08;;;;;;;3.78;2.13;;;19.90;88.10;;;;;;5127284;27;20516;-77
2022/07/15 08:15:34;;;;;;;5.65;2.15;;;19.90;87.90;;;;;;5128463;27;20028;-77
2022/07/15 08:18:01;;;;;;;4.03;1.55;;;19.90;87.60;;;;;;5127151;27;20073;-77
2022/07/15 08:20:28;;;;;;;4.30;2.08;;;20.00;87.70;;;;;;5126237;27;20549;-77
2022/07/15 08:22:58;;;;;;;3.05;1.80;;;20.00;87.90;;;;;;5127235;27;20046;-77
2022/07/15 08:25:36;;;;;;;2.80;1.92;;;20.00;87.30;;;;;;5141836;27;20665;-77
2022/07/15 08:28:03;;;;;;;5.00;2.42;;;20.10;87.30;;;;;;5124118;27;20594;-77
2022/07/15 08:30:30;;;;;;;2.83;1.70;;;20.10;87.20;;;;;;5124137;27;20062;-79
2022/07/15 08:32:57;;;;;;;3.72;1.58;;;20.10;87.30;;;;;;5122919;27;20603;-75
2022/07/15 08:35:23;;;;;;;5.03;1.80;;;20.20;87.10;;;;;;5119152;27;20051;-77
2022/07/15 08:37:49;;;;;;;4.28;1.77;;;20.20;87.10;;;;;;5121539;27;20048;-76
2022/07/15 08:40:15;;;;;;;4.72;2.00;;;20.20;86.80;;;;;;5122177;27;20546;-77
2022/07/15 08:42:43;;;;;;;5.65;2.05;;;20.30;86.80;;;;;;5125685;27;20570;-76
2022/07/15 08:45:10;;;;;;;5.13;1.80;;;20.30;86.70;;;;;;5122745;27;20638;-76
2022/07/15 08:47:39;;;;;;;3.38;1.80;;;20.40;86.20;;;;;;5123524;27;20532;-76
2022/07/15 08:50:05;;;;;;;6.45;2.33;;;20.40;86.20;;;;;;5124437;27;20036;-76
2022/07/15 08:52:34;;;;;;;3.22;1.77;;;20.40;86.10;;;;;;5124455;27;20038;-76
2022/07/15 08:55:00;;;;;;;6.60;2.35;;;20.40;85.80;;;;;;5127145;27;20043;-77
2022/07/15 08:57:26;;;;;;;5.75;1.80;;;20.40;85.30;;;;;;5123771;27;20047;-77
2022/07/15 08:59:52;;;;;;;3.33;1.90;;;20.50;85.10;;;;;;5126405;27;20030;-77
2022/07/15 09:02:19;;;;;;;2.88;1.90;;;20.50;85.20;;;;;;5123250;27;20536;-76
2022/07/15 09:05:22;;;;;;;3.30;2.03;;;20.50;85.10;;;;;;5123309;27;20032;-76
2022/07/15 09:07:53;;;;;;;7.28;1.98;;;20.60;84.70;;;;;;5107732;27;20047;-76
2022/07/15 09:10:20;;;;;;;4.57;1.98;;;20.60;84.10;;;;;;5124718;27;20031;-76
2022/07/15 09:12:50;;;;;;;2.83;1.88;;;20.60;84.00;;;;;;5125694;27;20227;-76
2022/07/15 09:15:37;;;;;;;4.75;2.13;;;20.60;84.10;;;;;;5123040;27;20035;-77
2022/07/15 09:18:06;;;;;;;5.10;1.77;;;20.70;84.00;;;;;;5124206;27;20039;-76
2022/07/15 09:20:32;;;;;;;4.72;1.45;;;20.70;84.10;;;;;;5108612;27;20050;-77
2022/07/15 09:22:59;;;;;;;3.45;1.52;;;20.70;84.10;;;;;;5124648;27;20529;-77
2022/07/15 09:25:27;;;;;;;4.72;1.80;;;20.70;83.80;;;;;;5124540;27;20055;-76
2022/07/15 09:27:53;;;;;;;4.22;1.90;;;20.70;83.70;;;;;;5124620;27;20409;-77
2022/07/15 09:33:34;;;;;;;4.38;2.10;;;20.80;83.60;;;;;;5126004;27;20100;-74
2022/07/15 09:36:20;;;;;;;7.55;2.38;;;20.80;83.90;;;;;;5126131;27;20531;-75
2022/07/15 09:38:53;;;;;;;5.28;2.17;;;20.80;83.50;;;;;;5123216;27;20122;-75
2022/07/15 09:41:36;;;;;;;3.80;2.38;;;20.90;83.40;;;;;;5123051;27;20069;-75
2022/07/15 09:44:12;;;;;;;3.30;1.65;;;20.90;83.40;;;;;;5123485;27;20040;-77
2022/07/15 09:46:57;;;;;;;2.40;1.60;;;20.90;83.20;;;;;;5125012;27;20066;-78
2022/07/15 09:49:22;;;;;;;6.50;1.92;;;21.00;83.20;;;;;;5119693;27;20043;-76
2022/07/15 09:52:01;;;;;;;5.50;2.28;;;21.00;83.10;;;;;;5107469;27;20071;-76
2022/07/15 09:54:47;;;;;;;3.10;1.73;;;21.00;83.00;;;;;;5123752;27;20039;-76
2022/07/15 09:57:17;;;;;;;8.82;2.15;;;21.00;83.00;;;;;;5125997;27;20035;-76
2022/07/15 09:59:47;;;;;;;3.63;1.63;;;21.00;82.80;;;;;;5125492;27;20048;-76
2022/07/15 10:02:14;;;;;;;5.47;1.73;;;21.10;83.20;;;;;;5127066;27;20033;-76
2022/07/15 10:04:40;;;;;;;5.20;1.80;;;21.10;82.20;;;;;;5126888;27;20536;-76
2022/07/15 10:07:07;;;;;;;7.47;2.15;;;21.10;82.00;;;;;;5128470;27;20023;-76
2022/07/15 10:09:35;;;;;;;3.70;2.53;;;21.10;82.00;;;;;;5127787;27;20957;-76
2022/07/15 10:12:24;;;;;;;12.93;2.90;;;21.20;82.00;;;;;;5127390;27;20498;-76
2022/07/15 10:15:20;;;;;;;6.25;2.33;;;21.20;82.00;;;;;;5129147;27;20622;-76
2022/07/15 10:18:09;;;;;;;4.20;2.00;;;21.20;82.00;;;;;;5127488;27;20520;-76
2022/07/15 10:21:11;;;;;;;4.10;1.88;;;21.20;82.00;;;;;;5129018;27;20620;-76
2022/07/15 10:23:40;;;;;;;9.20;1.80;;;21.30;82.10;;;;;;5130325;27;20031;-76
2022/07/15 10:26:37;;;;;;;3.83;1.50;;;21.30;82.10;;;;;;5128319;27;20044;-76
2022/07/15 10:29:05;;;;;;;3.20;1.70;;;21.40;81.80;;;;;;5128349;27;20041;-76
2022/07/15 10:31:33;;;;;;;6.47;1.85;;;21.40;81.80;;;;;;5127095;27;20085;-76
2022/07/15 10:34:11;;;;;;;6.90;1.70;;;21.40;81.90;;;;;;5128114;27;20070;-76
2022/07/15 10:36:53;;;;;;;2.50;1.60;;;21.50;81.90;;;;;;5126797;27;20055;-76
2022/07/15 10:39:21;;;;;;;4.35;1.40;;;21.40;81.60;;;;;;5128885;27;20464;-76
2022/07/15 10:42:01;;;;;;;6.95;2.55;;;21.50;81.40;;;;;;5128628;27;20489;-76
2022/07/15 10:44:33;;;;;;;2.78;1.73;;;21.50;81.50;;;;;;5128346;27;20073;-76
2022/07/15 10:47:14;;;;;;;4.47;2.03;;;21.60;81.50;;;;;;5128059;27;20035;-76
2022/07/15 10:49:41;;;;;;;4.17;1.80;;;21.60;81.40;;;;;;5128898;27;20075;-77
2022/07/15 10:52:31;;;;;;;3.58;1.65;;;21.70;81.40;;;;;;5130269;27;20039;-76
2022/07/15 10:54:59;;;;;;;3.85;1.63;;;21.60;81.30;;;;;;5128112;27;20753;-76
2022/07/15 10:57:41;;;;;;;5.32;2.15;;;21.70;81.30;;;;;;5128205;27;20555;-76
2022/07/15 11:00:28;;;;;;;4.50;2.20;;;21.70;81.10;;;;;;5129684;27;20032;-76
2022/07/15 11:03:20;;;;;;;6.22;2.22;;;21.70;80.90;;;;;;5126437;27;20443;-76
2022/07/15 11:05:58;;;;;;;2.40;1.60;;;21.80;80.80;;;;;;5125242;27;20051;-76
2022/07/15 11:08:36;;;;;;;4.60;1.85;;;21.80;80.60;;;;;;5129982;27;20132;-76
2022/07/15 11:11:14;;;;;;;3.92;1.42;;;21.80;80.20;;;;;;5111412;27;20097;-76
2022/07/15 11:13:41;;;;;;;3.53;2.00;;;21.80;80.20;;;;;;5126668;27;20496;-76
2022/07/15 11:16:13;;;;;;;3.13;1.77;;;21.80;80.10;;;;;;5129232;27;20035;-76
2022/07/15 11:18:51;;;;;;;4.05;2.03;;;21.80;79.80;;;;;;5128113;27;20036;-76
2022/07/15 11:21:19;;;;;;;3.72;1.48;;;21.90;79.30;;;;;;5128055;27;20588;-76
2022/07/15 11:23:46;;;;;;;4.30;1.65;;;21.90;79.10;;;;;;5128786;27;20475;-78
2022/07/15 11:26:12;;;;;;;2.33;1.58;;;21.90;79.20;;;;;;5128145;27;20043;-77
2022/07/15 11:28:38;;;;;;;2.80;1.63;;;21.90;79.20;;;;;;5129777;27;20130;-76
2022/07/15 11:31:04;;;;;;;5.88;1.63;;;22.00;79.20;;;;;;5127471;27;20035;-76
2022/07/15 11:33:30;;;;;;;5.25;1.65;;;22.00;78.80;;;;;;5125379;27;20559;-75
2022/07/15 11:36:02;;;;;;;3.75;1.55;;;22.00;78.60;;;;;;5124598;27;20071;-75
2022/07/15 11:38:29;;;;;;;;;;;22.00;78.60;;;;;;5126448;27;20063;-75
2022/07/15 11:46:31;;;;;;;3.75;1.58;;;22.10;78.30;;;;;;5124462;27;20887;-76
2022/07/15 11:48:58;;;;;;;2.85;1.38;;;22.10;78.20;;;;;;5123982;27;20039;-76
2022/07/15 11:51:30;;;;;;;3.50;2.10;;;22.10;77.30;;;;;;5125922;27;20039;-76
2022/07/15 11:53:56;;;;;;;;;;;22.20;76.90;;;;;;5126215;27;20054;-76
2022/07/15 11:56:22;;;;;;;1.83;1.15;;;22.20;76.60;;;;;;5124258;27;20038;-76
2022/07/15 11:58:53;;;;;;;2.95;1.73;;;22.20;76.30;;;;;;5125907;27;20050;-75
2022/07/15 12:01:28;;;;;;;5.22;1.77;;;22.20;75.90;;;;;;5125614;27;20039;-76
2022/07/15 12:03:55;;;;;;;3.50;2.15;;;22.20;75.90;;;;;;5121898;27;20052;-76
2022/07/15 12:06:30;;;;;;;5.78;1.58;;;22.30;76.00;;;;;;5124692;27;20339;-75
2022/07/15 12:09:03;;;;;;;3.67;1.60;;;22.30;76.80;;;;;;5125129;27;20571;-76
2022/07/15 12:11:33;;;;;;;4.30;1.67;;;22.30;76.20;;;;;;5125542;27;20043;-76
2022/07/15 12:14:03;;;;;;;2.03;1.40;;;22.40;75.40;;;;;;5125034;27;20254;-75
2022/07/15 12:16:40;;;;;;;2.72;2.00;;;22.40;75.20;;;;;;5126914;27;20089;-75
2022/07/15 12:19:08;;;;;;;4.82;1.33;;;22.40;74.50;;;;;;5126597;27;20559;-76
2022/07/15 12:21:41;;;;;;;5.93;1.60;;;22.40;74.70;;;;;;5124398;27;20043;-75
2022/07/15 12:24:12;;;;;;;1.33;0.98;;;22.40;74.50;;;;;;5125162;27;20247;-76
2022/07/15 12:26:50;;;;;;;3.35;1.50;;;22.50;74.20;;;;;;5122976;27;20039;-76
2022/07/15 12:29:18;;;;;;;1.70;1.20;;;22.60;74.10;;;;;;5125088;27;20047;-76
2022/07/15 12:31:52;;;;;;;1.80;1.15;;;22.60;73.60;;;;;;5124964;27;20090;-76
2022/07/15 12:34:18;;;;;;;1.88;1.27;;;22.60;73.50;;;;;;5122649;27;20531;-76
2022/07/15 12:36:44;;;;;;;3.47;1.30;;;22.50;73.30;;;;;;5124924;27;20043;-76
2022/07/15 12:39:12;;;;;;;3.10;1.48;;;22.60;72.60;;;;;;5125188;27;20422;-76
2022/07/15 12:41:40;;;;;;;2.05;1.65;;;22.60;72.20;;;;;;5124702;27;20086;-76
2022/07/15 12:44:07;;;;;;;4.20;1.90;;;22.60;71.90;;;;;;5125905;27;20043;-76
2022/07/15 12:46:59;;;;;;;3.30;1.52;;;22.60;71.80;;;;;;5125753;27;20077;-76
2022/07/15 12:49:41;;;;;;;3.08;1.60;;;22.60;71.90;;;;;;5125241;27;20444;-76
2022/07/15 12:52:18;;;;;;;3.25;1.30;;;22.60;71.90;;;;;;5123551;27;21017;-76
2022/07/15 12:54:45;;;;;;;4.35;1.30;;;22.70;72.30;;;;;;5125273;27;20051;-76
2022/07/15 12:57:34;;;;;;;5.47;1.23;;;22.70;72.50;;;;;;5125970;27;20549;-76
2022/07/15 13:00:15;;;;;;;2.67;1.13;;;22.80;72.90;;;;;;5125404;27;20040;-76
2022/07/15 13:03:09;;;;;;;3.10;1.33;;;22.80;71.90;;;;;;5123670;27;20130;-76
2022/07/15 13:05:54;;;;;;;3.15;1.50;;;22.80;72.10;;;;;;5123877;27;20722;-76
2022/07/15 13:08:27;;;;;;;2.60;1.27;;;22.80;72.60;;;;;;5107839;27;20055;-76
2022/07/15 13:10:55;;;;;;;2.05;1.10;;;22.90;72.70;;;;;;5124974;27;20044;-76
2022/07/15 13:13:23;;;;;;;2.67;1.38;;;22.90;72.10;;;;;;5124568;27;20085;-75
2022/07/15 13:15:49;;;;;;;5.53;1.65;;;22.90;71.60;;;;;;5125385;27;20031;-75